Time;durP1;ratioP1;P1;durP2;ratioP2;P2;SDS_P1;SDS_P2;PMS_P1;PMS_P2;Temp;Humidity;BMP_temperature;BMP_pressure;BME280_temperature;BME280_humidity;BME280_pressure;Samples;Min_cycle;Max_cycle;Signal;HPM_P1;HPM_P2
2022/05/28 00:01:17;;;;;;;4.50;3.83;;;13.90;99.90;;;;;;4862625;29;20487;-93
2022/05/28 00:03:43;;;;;;;4.40;3.80;;;13.80;99.90;;;;;;4877074;29;20823;-94
2022/05/28 00:06:18;;;;;;;5.37;3.53;;;13.70;99.90;;;;;;4878935;29;20459;-93
2022/05/28 00:08:44;;;;;;;5.57;4.50;;;13.50;99.90;;;;;;4894831;29;20211;-95
2022/05/28 00:11:23;;;;;;;7.10;4.03;;;13.40;99.90;;;;;;4870054;29;20476;-94
2022/05/28 00:13:50;;;;;;;6.63;4.57;;;13.30;99.90;;;;;;4868085;29;20436;-93
2022/05/28 00:16:19;;;;;;;5.17;4.67;;;13.20;99.90;;;;;;4883519;29;21001;-93
2022/05/28 00:18:52;;;;;;;5.03;4.63;;;13.20;99.90;;;;;;4882175;29;20467;-94
2022/05/28 00:21:22;;;;;;;5.17;4.70;;;13.10;99.90;;;;;;4863435;29;20444;-91
2022/05/28 00:23:50;;;;;;;6.67;5.40;;;13.10;99.90;;;;;;4867802;29;20452;-92
2022/05/28 00:26:17;;;;;;;6.53;4.90;;;13.20;99.90;;;;;;4862093;29;20871;-95
2022/05/28 00:28:43;;;;;;;6.77;5.13;;;13.20;99.90;;;;;;4868503;29;20592;-92
2022/05/28 00:31:17;;;;;;;5.70;5.10;;;13.20;99.90;;;;;;4874862;29;20595;-93
2022/05/28 00:33:43;;;;;;;5.03;4.63;;;13.00;99.90;;;;;;4884707;29;20892;-92
2022/05/28 00:36:11;;;;;;;7.50;4.60;;;12.90;99.90;;;;;;4880902;29;20555;-94
2022/05/28 00:38:41;;;;;;;7.23;5.23;;;12.90;99.90;;;;;;4887578;29;20444;-91
2022/05/28 00:41:08;;;;;;;5.37;4.87;;;12.80;99.90;;;;;;4866751;29;20459;-94
2022/05/28 00:43:38;;;;;;;9.87;5.53;;;12.90;99.90;;;;;;4866383;29;20802;-92
2022/05/28 00:46:12;;;;;;;6.33;5.60;;;12.80;99.90;;;;;;4882738;29;20463;-92
2022/05/28 00:48:44;;;;;;;5.40;4.90;;;12.80;99.90;;;;;;4886228;29;20576;-92
2022/05/28 00:51:22;;;;;;;6.37;4.77;;;12.90;99.90;;;;;;4882262;29;20453;-93
2022/05/28 00:53:48;;;;;;;7.70;5.20;;;12.70;99.90;;;;;;4870108;29;20616;-94
2022/05/28 00:56:14;;;;;;;8.00;6.13;;;12.60;99.90;;;;;;4882546;29;22459;-96
2022/05/28 00:58:40;;;;;;;5.90;5.40;;;12.40;99.90;;;;;;4860609;29;20498;-93
2022/05/28 01:01:08;;;;;;;7.67;5.43;;;12.30;99.90;;;;;;4867787;29;20202;-95
2022/05/28 01:04:03;;;;;;;8.93;6.00;;;12.40;99.90;;;;;;4883653;29;20223;-96
2022/05/28 01:06:44;;;;;;;5.70;4.97;;;12.30;99.90;;;;;;4894588;29;20443;-95
2022/05/28 01:09:23;;;;;;;8.00;5.57;;;12.30;99.90;;;;;;4895026;29;20541;-94
2022/05/28 01:12:03;;;;;;;6.73;5.50;;;12.10;99.90;;;;;;4882554;29;20524;-94
2022/05/28 01:14:55;;;;;;;6.50;5.90;;;12.10;99.90;;;;;;4882317;29;20747;-93
2022/05/28 01:17:30;;;;;;;8.77;5.27;;;12.10;99.90;;;;;;4880481;29;20544;-93
2022/05/28 01:19:58;;;;;;;8.83;5.30;;;12.10;99.90;;;;;;4886740;29;20457;-94
2022/05/28 01:22:49;;;;;;;8.17;5.70;;;12.10;99.90;;;;;;4886294;29;20463;-94
2022/05/28 01:25:32;;;;;;;8.97;5.80;;;12.20;99.90;;;;;;4872606;29;20574;-94
2022/05/28 01:28:04;;;;;;;6.93;5.33;;;12.30;99.90;;;;;;4881203;29;20456;-93
2022/05/28 01:30:31;;;;;;;8.30;6.00;;;12.20;99.90;;;;;;4866852;29;20488;-93
2022/05/28 01:32:59;;;;;;;6.00;5.40;;;12.30;99.90;;;;;;4880607;29;20488;-94
2022/05/28 01:35:27;;;;;;;7.97;5.20;;;12.30;99.90;;;;;;4867539;29;20447;-93
2022/05/28 01:37:53;;;;;;;5.67;5.03;;;12.40;99.90;;;;;;4879241;29;20444;-93
2022/05/28 01:40:23;;;;;;;7.03;6.40;;;12.50;99.90;;;;;;4867740;29;20443;-93
2022/05/28 01:42:52;;;;;;;7.87;5.57;;;12.50;99.90;;;;;;4883757;29;20460;-93
2022/05/28 01:45:21;;;;;;;5.83;5.23;;;12.60;99.90;;;;;;4877643;29;20467;-94
2022/05/28 01:47:50;;;;;;;7.27;5.40;;;12.60;99.90;;;;;;4884132;29;20956;-93
2022/05/28 01:50:20;;;;;;;8.37;5.60;;;12.60;99.90;;;;;;4863165;29;20925;-93
2022/05/28 01:52:46;;;;;;;8.63;5.90;;;12.70;99.90;;;;;;4883578;29;20445;-93
2022/05/28 01:55:16;;;;;;;6.43;5.50;;;12.70;99.90;;;;;;4883124;29;20968;-94
2022/05/28 01:57:42;;;;;;;8.07;5.60;;;12.70;99.90;;;;;;4891476;29;20444;-94
2022/05/28 02:00:09;;;;;;;7.90;5.83;;;12.70;99.90;;;;;;4897640;29;20466;-95
2022/05/28 02:02:35;;;;;;;6.43;5.17;;;12.70;99.90;;;;;;4900467;29;20236;-94
2022/05/28 02:05:01;;;;;;;6.47;5.40;;;12.70;99.90;;;;;;4890947;29;20539;-94
2022/05/28 02:07:27;;;;;;;8.40;5.67;;;12.70;99.90;;;;;;4896341;29;20239;-94
2022/05/28 02:10:04;;;;;;;8.17;5.70;;;12.70;99.90;;;;;;4874753;29;21017;-93
2022/05/28 02:12:33;;;;;;;8.67;4.90;;;12.60;99.90;;;;;;4889854;29;20512;-93
2022/05/28 02:15:28;;;;;;;7.97;5.70;;;12.60;99.90;;;;;;4871466;29;20563;-93
2022/05/28 02:18:01;;;;;;;6.27;5.50;;;12.60;99.90;;;;;;4872371;29;20429;-94
2022/05/28 02:20:57;;;;;;;7.07;6.30;;;12.60;99.90;;;;;;4868250;29;20440;-93
2022/05/28 02:23:41;;;;;;;12.63;5.87;;;12.60;99.90;;;;;;4868556;29;20448;-93
2022/05/28 02:26:10;;;;;;;9.40;5.73;;;12.50;99.90;;;;;;4865535;29;20558;-94
2022/05/28 02:28:36;;;;;;;10.30;5.70;;;12.30;99.90;;;;;;4885455;29;20571;-95
2022/05/28 02:31:12;;;;;;;7.67;5.20;;;12.10;99.90;;;;;;4870124;29;20468;-93
2022/05/28 02:33:38;;;;;;;5.90;5.33;;;12.10;99.90;;;;;;4864060;29;21140;-95
2022/05/28 02:36:04;;;;;;;8.27;4.73;;;12.10;99.90;;;;;;4872050;29;21395;-96
2022/05/28 02:38:30;;;;;;;7.33;4.80;;;12.10;99.90;;;;;;4880208;29;21462;-96
2022/05/28 02:40:56;;;;;;;7.57;4.80;;;12.10;99.90;;;;;;4881555;29;20192;-95
2022/05/28 02:43:23;;;;;;;6.47;4.43;;;12.10;99.90;;;;;;4870637;29;20200;-95
2022/05/28 02:45:49;;;;;;;7.20;4.30;;;12.00;99.90;;;;;;4861659;29;20468;-94
2022/05/28 02:48:15;;;;;;;9.70;4.67;;;12.00;99.90;;;;;;4861290;29;20496;-94
2022/05/28 02:50:41;;;;;;;8.13;4.17;;;12.00;99.90;;;;;;4868046;29;20490;-93
2022/05/28 02:53:07;;;;;;;5.37;4.03;;;11.90;99.90;;;;;;4879243;29;20452;-95
2022/05/28 02:55:35;;;;;;;8.73;4.40;;;11.80;99.90;;;;;;4866536;29;20228;-93
2022/05/28 02:58:08;;;;;;;10.93;4.83;;;11.90;99.90;;;;;;4868085;29;20496;-94
2022/05/28 03:00:50;;;;;;;8.50;3.50;;;11.70;99.90;;;;;;4876593;29;20539;-94
2022/05/28 03:03:19;;;;;;;4.20;3.63;;;11.70;99.90;;;;;;4873742;29;20467;-94
2022/05/28 03:05:49;;;;;;;10.70;4.17;;;11.80;99.90;;;;;;4861042;29;20527;-95
2022/05/28 03:08:18;;;;;;;5.93;3.33;;;11.80;99.90;;;;;;4883814;29;20447;-94
2022/05/28 03:10:50;;;;;;;4.67;3.30;;;11.70;99.90;;;;;;4894901;29;20626;-92
2022/05/28 03:13:15;;;;;;;7.27;3.40;;;11.80;99.90;;;;;;4884014;29;20448;-93
2022/05/28 03:15:41;;;;;;;5.30;2.90;;;11.80;99.90;;;;;;4882628;29;20215;-95
2022/05/28 03:18:06;;;;;;;5.93;3.47;;;11.80;99.90;;;;;;4882768;29;20487;-92
2022/05/28 03:20:32;;;;;;;8.90;4.10;;;11.70;99.90;;;;;;4882999;29;20757;-93
2022/05/28 03:22:58;;;;;;;7.03;3.00;;;11.60;99.90;;;;;;4872397;29;20779;-92
2022/05/28 03:25:24;;;;;;;5.53;3.00;;;11.70;99.90;;;;;;4865685;29;20192;-92
2022/05/28 03:27:49;;;;;;;5.77;3.60;;;11.50;99.90;;;;;;4873294;29;20451;-92
2022/05/28 03:30:16;;;;;;;11.30;2.90;;;11.50;99.90;;;;;;4861882;29;20220;-92
2022/05/28 03:32:41;;;;;;;6.33;3.80;;;11.50;99.90;;;;;;4865427;29;20340;-92
2022/05/28 03:35:08;;;;;;;9.13;3.57;;;11.40;99.90;;;;;;4869768;29;20452;-93
2022/05/28 03:37:34;;;;;;;4.43;2.80;;;11.50;99.90;;;;;;4896367;29;20217;-93
2022/05/28 03:40:00;;;;;;;6.83;4.00;;;11.40;99.90;;;;;;4867578;29;20455;-92
2022/05/28 03:42:25;;;;;;;8.23;3.60;;;11.40;99.90;;;;;;4871194;29;21418;-92
2022/05/28 03:44:51;;;;;;;6.10;3.20;;;11.40;99.90;;;;;;4870374;29;20193;-92
2022/05/28 03:47:17;;;;;;;10.50;3.80;;;11.30;99.90;;;;;;4885984;29;20420;-93
2022/05/28 03:49:43;;;;;;;4.60;2.60;;;11.30;99.90;;;;;;4860881;29;20236;-93
2022/05/28 03:52:10;;;;;;;5.40;2.80;;;11.20;99.90;;;;;;4866357;29;20223;-92
2022/05/28 03:54:43;;;;;;;5.73;2.57;;;11.30;99.90;;;;;;4874486;29;22137;-91
2022/05/28 03:57:20;;;;;;;8.33;3.23;;;11.10;99.90;;;;;;4886825;29;20444;-92
2022/05/28 03:59:48;;;;;;;7.40;2.97;;;11.20;99.90;;;;;;4892512;29;20460;-93
2022/05/28 04:02:14;;;;;;;4.00;2.50;;;11.20;99.90;;;;;;4885214;29;20447;-93
2022/05/28 04:04:40;;;;;;;9.40;3.17;;;11.20;99.90;;;;;;4874377;29;20600;-92
2022/05/28 04:07:06;;;;;;;9.33;2.90;;;11.20;99.90;;;;;;4896591;29;20299;-95
2022/05/28 04:09:32;;;;;;;5.60;2.70;;;11.20;99.90;;;;;;4888680;29;20251;-94
2022/05/28 04:11:57;;;;;;;8.97;3.10;;;11.20;99.90;;;;;;4872059;29;20441;-93
2022/05/28 04:14:23;;;;;;;4.73;2.40;;;11.10;99.90;;;;;;4861176;29;20287;-92
2022/05/28 04:16:49;;;;;;;9.40;3.07;;;11.00;99.90;;;;;;4887344;29;20839;-91
2022/05/28 04:19:17;;;;;;;7.20;2.40;;;11.10;99.90;;;;;;4868223;29;20271;-94
2022/05/28 04:21:43;;;;;;;3.90;2.53;;;11.10;99.90;;;;;;4867068;29;20192;-93
2022/05/28 04:24:11;;;;;;;6.27;2.63;;;11.10;99.90;;;;;;4863065;29;20886;-93
2022/05/28 04:26:37;;;;;;;7.00;2.40;;;11.00;99.90;;;;;;4868646;29;20632;-92
2022/05/28 04:29:03;;;;;;;6.07;2.60;;;11.00;99.90;;;;;;4862954;29;20475;-92
2022/05/28 04:31:29;;;;;;;5.10;2.80;;;10.90;99.90;;;;;;4869053;29;21085;-92
2022/05/28 04:34:12;;;;;;;5.50;2.60;;;10.90;99.90;;;;;;4882820;29;20448;-91
2022/05/28 04:36:38;;;;;;;10.27;3.10;;;10.90;99.90;;;;;;4877558;29;20993;-91
2022/05/28 04:39:03;;;;;;;4.60;2.60;;;10.80;99.90;;;;;;4884381;29;20451;-91
2022/05/28 04:41:29;;;;;;;5.53;2.50;;;10.70;99.90;;;;;;4869556;29;20191;-92
2022/05/28 04:43:54;;;;;;;6.20;2.70;;;10.60;99.90;;;;;;4865475;29;20199;-92
2022/05/28 04:46:20;;;;;;;7.37;2.80;;;10.80;99.90;;;;;;4863284;29;20203;-92
2022/05/28 04:48:46;;;;;;;6.30;2.50;;;10.90;99.90;;;;;;4881343;29;21269;-92
2022/05/28 04:51:12;;;;;;;8.27;2.40;;;10.90;99.90;;;;;;4872883;29;20223;-92
2022/05/28 04:53:38;;;;;;;4.87;2.47;;;10.90;99.90;;;;;;4886285;29;20585;-93
2022/05/28 04:56:04;;;;;;;8.73;2.60;;;11.00;99.90;;;;;;4876526;29;20465;-93
2022/05/28 04:58:33;;;;;;;4.73;2.23;;;11.10;99.90;;;;;;4872254;29;20444;-93
2022/05/28 05:01:00;;;;;;;8.43;2.20;;;11.10;99.90;;;;;;4889195;29;20551;-94
2022/05/28 05:03:26;;;;;;;6.50;2.10;;;11.10;99.90;;;;;;4873307;29;20524;-91
2022/05/28 05:05:52;;;;;;;4.60;2.27;;;11.00;99.90;;;;;;4906861;29;20264;-92
2022/05/28 05:08:17;;;;;;;7.73;2.50;;;11.00;99.90;;;;;;4919117;29;20196;-92
2022/05/28 05:10:45;;;;;;;4.30;2.33;;;11.00;99.90;;;;;;4882025;29;20228;-93
2022/05/28 05:13:10;;;;;;;5.30;2.80;;;10.90;99.90;;;;;;4886602;29;20192;-93
2022/05/28 05:15:37;;;;;;;7.00;2.10;;;11.00;99.90;;;;;;4870643;29;20463;-94
2022/05/28 05:18:05;;;;;;;7.57;2.67;;;10.90;99.90;;;;;;4866012;29;20498;-96
2022/05/28 05:20:31;;;;;;;5.73;2.10;;;10.90;99.90;;;;;;4867829;29;21803;-93
2022/05/28 05:22:57;;;;;;;4.67;1.87;;;10.80;99.90;;;;;;4869138;29;20444;-93
2022/05/28 05:25:37;;;;;;;7.67;2.20;;;11.00;99.90;;;;;;4868350;29;20195;-93
2022/05/28 05:28:03;;;;;;;3.33;2.07;;;11.10;99.90;;;;;;4873436;29;21064;-94
2022/05/28 05:30:29;;;;;;;4.43;2.20;;;11.10;99.90;;;;;;4864698;29;20484;-90
2022/05/28 05:32:56;;;;;;;6.03;2.10;;;11.30;99.90;;;;;;4890865;29;20695;-91
2022/05/28 05:35:22;;;;;;;4.63;2.30;;;11.40;99.90;;;;;;4878997;29;20192;-92
2022/05/28 05:37:48;;;;;;;10.00;2.57;;;11.30;99.90;;;;;;4883402;29;21188;-93
2022/05/28 05:40:14;;;;;;;5.77;1.80;;;11.40;99.90;;;;;;4876282;29;20946;-92
2022/05/28 05:42:43;;;;;;;3.53;2.20;;;11.50;99.90;;;;;;4874765;29;20465;-91
2022/05/28 05:45:11;;;;;;;5.07;1.87;;;11.50;99.90;;;;;;4874548;29;20452;-92
2022/05/28 05:47:52;;;;;;;3.83;2.03;;;11.60;99.90;;;;;;4898907;29;20555;-93
2022/05/28 05:50:17;;;;;;;4.63;2.23;;;11.70;99.90;;;;;;4883352;29;20633;-91
2022/05/28 05:52:43;;;;;;;5.57;2.30;;;11.90;99.90;;;;;;4891519;29;20192;-91
2022/05/28 05:55:11;;;;;;;3.80;2.23;;;12.00;99.90;;;;;;4877592;29;20497;-91
2022/05/28 05:57:37;;;;;;;4.37;2.30;;;12.10;99.90;;;;;;4880583;29;20189;-92
2022/05/28 06:00:06;;;;;;;4.30;1.77;;;12.10;99.90;;;;;;4880698;29;20842;-90
2022/05/28 06:02:31;;;;;;;5.30;1.60;;;12.10;99.90;;;;;;4872633;29;20213;-91
2022/05/28 06:05:06;;;;;;;5.77;1.80;;;11.90;99.90;;;;;;4882883;29;20452;-91
2022/05/28 06:07:32;;;;;;;7.10;2.23;;;12.10;99.90;;;;;;4882745;29;20230;-91
2022/05/28 06:09:57;;;;;;;5.10;2.20;;;11.90;99.90;;;;;;4875866;29;20610;-93
2022/05/28 06:12:23;;;;;;;5.93;1.90;;;11.80;99.90;;;;;;4875238;29;20192;-90
2022/05/28 06:14:48;;;;;;;7.10;2.80;;;11.70;99.90;;;;;;4891180;29;20192;-92
2022/05/28 06:17:14;;;;;;;7.23;2.40;;;11.80;99.90;;;;;;4892894;29;20236;-93
2022/05/28 06:19:39;;;;;;;7.57;2.17;;;11.90;99.90;;;;;;4871475;29;20332;-89
2022/05/28 06:22:06;;;;;;;6.17;2.37;;;12.10;99.90;;;;;;4861423;29;20466;-89
2022/05/28 06:24:31;;;;;;;3.90;2.10;;;12.10;99.90;;;;;;4863456;29;20188;-90
2022/05/28 06:27:01;;;;;;;5.63;2.10;;;12.30;99.90;;;;;;4875390;29;20462;-90
2022/05/28 06:29:28;;;;;;;4.90;1.50;;;12.40;99.90;;;;;;4867661;29;20222;-91
2022/05/28 06:31:53;;;;;;;3.27;1.80;;;12.40;99.90;;;;;;4878512;29;20997;-92
2022/05/28 06:34:21;;;;;;;5.27;1.70;;;12.40;99.90;;;;;;4865447;29;20475;-88
2022/05/28 06:36:50;;;;;;;4.20;1.73;;;12.80;99.90;;;;;;4866159;29;21713;-90
2022/05/28 06:39:15;;;;;;;4.13;1.70;;;12.90;99.90;;;;;;4875660;29;20531;-89
2022/05/28 06:41:41;;;;;;;2.30;1.93;;;13.40;99.90;;;;;;4868121;29;20459;-90
2022/05/28 06:44:07;;;;;;;4.77;2.47;;;13.50;99.90;;;;;;4882431;29;20232;-91
2022/05/28 06:46:33;;;;;;;5.00;1.87;;;13.60;99.90;;;;;;4870069;29;20453;-89
2022/05/28 06:48:59;;;;;;;20.10;12.67;;;13.70;98.80;;;;;;4879752;29;20199;-92
2022/05/28 06:51:25;;;;;;;4.20;2.00;;;13.50;99.90;;;;;;4890894;29;20203;-92
2022/05/28 06:53:51;;;;;;;5.70;2.30;;;13.70;99.90;;;;;;4889502;29;20437;-88
2022/05/28 06:56:52;;;;;;;5.13;2.30;;;13.50;99.30;;;;;;4907696;29;20197;-92
2022/05/28 06:59:49;;;;;;;5.03;1.73;;;12.90;98.50;;;;;;4878705;29;20188;-89
2022/05/28 07:02:15;;;;;;;6.43;2.90;;;12.60;98.70;;;;;;4864711;29;20558;-92
2022/05/28 07:04:40;;;;;;;4.03;1.60;;;12.60;99.90;;;;;;4874303;29;20448;-90
2022/05/28 07:07:06;;;;;;;4.33;2.30;;;12.80;99.90;;;;;;4867155;29;20204;-90
2022/05/28 07:09:31;;;;;;;3.67;1.83;;;12.70;99.20;;;;;;4863033;29;20243;-91
2022/05/28 07:11:57;;;;;;;5.07;2.30;;;12.70;99.90;;;;;;4870572;29;21267;-88
2022/05/28 07:14:26;;;;;;;3.57;2.20;;;12.60;99.40;;;;;;4846628;29;20197;-91
2022/05/28 07:16:53;;;;;;;6.33;2.33;;;12.50;98.90;;;;;;4860778;29;20312;-90
2022/05/28 07:19:19;;;;;;;5.57;1.87;;;12.50;99.00;;;;;;4886301;29;20440;-89
2022/05/28 07:21:45;;;;;;;6.00;2.03;;;12.60;99.90;;;;;;4873289;29;20630;-89
2022/05/28 07:24:10;;;;;;;6.10;1.53;;;12.90;99.70;;;;;;4868080;29;20218;-90
2022/05/28 07:26:36;;;;;;;4.33;1.70;;;13.10;99.90;;;;;;4868489;29;20192;-90
2022/05/28 07:29:04;;;;;;;4.37;1.90;;;13.50;99.70;;;;;;4881062;29;20208;-90
2022/05/28 07:31:30;;;;;;;5.07;2.10;;;13.40;98.10;;;;;;4883539;29;20303;-92
2022/05/28 07:33:55;;;;;;;7.10;1.90;;;13.20;98.30;;;;;;4868878;29;20890;-90
2022/05/28 07:36:23;;;;;;;3.90;1.70;;;13.10;97.80;;;;;;4878378;29;20193;-90
2022/05/28 07:38:50;;;;;;;6.40;1.77;;;13.00;98.40;;;;;;4891760;29;20275;-90
2022/05/28 07:41:32;;;;;;;4.73;1.77;;;13.10;98.70;;;;;;4889877;29;20524;-94
2022/05/28 07:43:58;;;;;;;4.70;2.40;;;13.40;99.90;;;;;;4881428;29;20459;-90
2022/05/28 07:46:31;;;;;;;4.43;1.40;;;13.80;99.60;;;;;;4888644;29;20452;-89
2022/05/28 07:48:59;;;;;;;4.73;1.57;;;13.70;95.30;;;;;;4879479;29;20189;-89
2022/05/28 07:51:25;;;;;;;5.10;1.80;;;13.60;95.30;;;;;;4869454;29;20462;-86
2022/05/28 07:53:50;;;;;;;5.67;1.20;;;13.80;95.60;;;;;;4866634;29;20802;-93
2022/05/28 07:56:16;;;;;;;1.53;1.00;;;14.00;95.40;;;;;;4868957;29;21062;-87
2022/05/28 07:58:42;;;;;;;4.80;1.80;;;14.20;94.10;;;;;;4868489;29;20211;-86
2022/05/28 08:01:23;;;;;;;3.53;1.30;;;14.40;95.70;;;;;;4889549;29;20204;-87
2022/05/28 08:03:49;;;;;;;3.33;1.07;;;14.40;94.70;;;;;;4875971;29;20555;-91
2022/05/28 08:06:17;;;;;;;3.57;1.30;;;14.00;93.10;;;;;;4877931;29;20449;-93
2022/05/28 08:08:43;;;;;;;7.13;1.60;;;14.30;93.30;;;;;;4866113;29;20439;-88
2022/05/28 08:11:10;;;;;;;2.77;1.17;;;14.60;96.20;;;;;;4882372;29;20480;-89
2022/05/28 08:13:36;;;;;;;4.37;1.10;;;14.90;94.70;;;;;;4879635;29;20518;-86
2022/05/28 08:16:01;;;;;;;4.50;1.87;;;15.40;93.50;;;;;;4872618;29;20875;-88
2022/05/28 08:18:27;;;;;;;4.53;1.57;;;15.50;92.30;;;;;;4866244;29;20448;-88
2022/05/28 08:23:40;;;;;;;3.33;1.23;;;15.60;94.30;;;;;;4879240;29;20207;-88
2022/05/28 08:26:07;;;;;;;2.70;1.37;;;16.00;92.10;;;;;;4865846;29;20456;-89
2022/05/28 08:28:35;;;;;;;3.40;0.97;;;15.00;92.60;;;;;;4850625;29;21643;-88
2022/05/28 08:31:02;;;;;;;3.53;1.10;;;15.10;92.80;;;;;;4868831;29;20483;-90
2022/05/28 08:33:28;;;;;;;1.80;1.00;;;15.40;91.20;;;;;;4888844;29;20446;-88
2022/05/28 08:35:55;;;;;;;5.13;2.00;;;15.50;92.60;;;;;;4866219;29;20484;-88
2022/05/28 08:38:22;;;;;;;2.93;1.23;;;15.50;91.80;;;;;;4875055;29;20196;-88
2022/05/28 08:41:07;;;;;;;7.60;1.20;;;15.40;93.30;;;;;;4872278;29;20459;-87
2022/05/28 08:43:47;;;;;;;3.03;1.40;;;15.30;90.90;;;;;;4865482;29;20838;-89
2022/05/28 08:46:16;;;;;;;4.60;1.30;;;14.40;90.20;;;;;;4853051;29;20507;-87
2022/05/28 08:48:55;;;;;;;3.60;1.40;;;14.40;92.00;;;;;;4865079;29;20965;-88
2022/05/28 08:51:46;;;;;;;2.47;1.20;;;14.30;92.90;;;;;;4864385;29;20456;-87
2022/05/28 08:54:30;;;;;;;3.13;1.00;;;14.80;93.80;;;;;;4868679;29;20853;-89
2022/05/28 08:57:01;;;;;;;3.87;1.20;;;15.40;93.30;;;;;;4887616;29;20464;-89
2022/05/28 08:59:37;;;;;;;2.03;0.70;;;15.90;89.40;;;;;;4880936;29;20448;-88
2022/05/28 09:02:10;;;;;;;2.83;1.40;;;15.60;90.20;;;;;;4866697;29;20502;-88
2022/05/28 09:04:39;;;;;;;6.10;1.47;;;15.90;91.00;;;;;;4858200;29;20475;-90
2022/05/28 09:07:09;;;;;;;2.90;1.23;;;16.30;90.50;;;;;;4868672;29;20460;-91
2022/05/28 09:09:46;;;;;;;5.40;1.40;;;16.80;92.30;;;;;;4876147;29;20484;-91
2022/05/28 09:12:41;;;;;;;5.10;2.03;;;17.30;92.60;;;;;;4872505;29;20448;-91
2022/05/28 09:15:08;;;;;;;2.30;1.43;;;17.30;88.30;;;;;;4867431;29;20440;-91
2022/05/28 09:17:36;;;;;;;2.00;1.17;;;17.10;88.70;;;;;;4862647;29;20459;-89
2022/05/28 09:20:08;;;;;;;3.70;1.10;;;17.40;90.50;;;;;;4885633;29;20445;-86
2022/05/28 09:22:37;;;;;;;1.60;1.10;;;17.00;87.30;;;;;;4878860;29;21128;-91
2022/05/28 09:25:03;;;;;;;1.60;1.30;;;16.40;89.60;;;;;;4863390;29;20463;-89
2022/05/28 09:27:41;;;;;;;3.67;1.10;;;16.30;89.80;;;;;;4877111;29;20459;-89
2022/05/28 09:30:37;;;;;;;5.83;1.60;;;15.70;84.80;;;;;;4873067;29;20498;-90
2022/05/28 09:33:40;;;;;;;1.70;1.10;;;16.10;90.00;;;;;;4877660;29;21508;-90
2022/05/28 09:36:18;;;;;;;3.00;1.10;;;17.20;83.60;;;;;;4891800;29;20444;-95
2022/05/28 09:39:25;;;;;;;2.20;0.83;;;16.70;85.90;;;;;;4879641;29;21033;-91
2022/05/28 09:42:06;;;;;;;2.90;1.30;;;16.00;82.30;;;;;;4868279;29;20448;-93
2022/05/28 09:44:43;;;;;;;3.00;1.20;;;15.50;85.60;;;;;;4861674;29;21584;-93
2022/05/28 09:47:16;;;;;;;3.23;0.80;;;16.10;92.70;;;;;;4888207;29;20451;-92
2022/05/28 09:49:52;;;;;;;4.30;1.07;;;17.20;90.80;;;;;;4883017;29;20480;-95
2022/05/28 09:54:16;;;;;;;1.87;1.20;;;18.10;90.40;;;;;;4881150;29;20452;-94
2022/05/28 09:55:27;;;;;;;3.30;1.10;;;18.50;82.50;;;;;;4882298;29;20830;-91
2022/05/28 09:58:21;;;;;;;4.27;1.27;;;18.10;80.80;;;;;;4873362;29;20735;-92
2022/05/28 10:01:26;;;;;;;2.43;0.97;;;17.90;81.40;;;;;;4881268;29;20569;-90
2022/05/28 10:04:28;;;;;;;2.40;1.40;;;17.80;85.70;;;;;;4855818;29;20451;-91
2022/05/28 10:06:59;;;;;;;2.50;1.20;;;18.30;82.50;;;;;;4857474;29;21946;-92
2022/05/28 10:09:36;;;;;;;1.93;1.00;;;18.00;83.00;;;;;;4877437;29;20763;-93
2022/05/28 10:12:17;;;;;;;1.97;1.40;;;17.80;85.90;;;;;;4895532;29;20483;-93
2022/05/28 10:14:43;;;;;;;2.03;1.00;;;18.00;84.10;;;;;;4907360;29;20441;-89
2022/05/28 10:17:20;;;;;;;1.87;1.07;;;17.90;82.20;;;;;;4884535;29;20440;-91
2022/05/28 10:19:52;;;;;;;2.70;1.10;;;17.90;81.20;;;;;;4888819;29;20200;-93
2022/05/28 10:22:20;;;;;;;3.60;1.67;;;18.10;84.50;;;;;;4891946;29;20447;-93
2022/05/28 10:24:57;;;;;;;5.43;1.43;;;18.10;85.50;;;;;;4893367;29;20976;-90
2022/05/28 10:27:35;;;;;;;2.97;1.10;;;18.30;83.60;;;;;;4893370;29;20441;-89
2022/05/28 10:30:08;;;;;;;2.60;1.00;;;17.80;84.50;;;;;;4887141;29;20487;-90
2022/05/28 10:32:46;;;;;;;2.93;1.37;;;17.50;81.90;;;;;;4899081;29;20447;-87
2022/05/28 10:35:16;;;;;;;2.20;1.10;;;17.40;84.10;;;;;;4892625;29;20455;-92
2022/05/28 10:37:42;;;;;;;3.40;1.20;;;17.40;81.80;;;;;;4917929;29;20875;-89
2022/05/28 10:40:27;;;;;;;2.10;1.10;;;18.00;79.80;;;;;;4906914;29;20463;-88
2022/05/28 10:42:58;;;;;;;5.33;1.80;;;17.40;78.60;;;;;;4888718;29;20803;-87
2022/05/28 10:45:47;;;;;;;2.93;1.00;;;16.70;76.70;;;;;;4902722;29;20954;-87
2022/05/28 10:48:34;;;;;;;1.80;1.10;;;17.00;81.80;;;;;;4891458;29;20460;-87
2022/05/28 10:51:21;;;;;;;1.40;1.10;;;17.50;83.30;;;;;;4891696;29;20582;-86
2022/05/28 10:53:52;;;;;;;2.90;1.10;;;18.80;83.70;;;;;;4877631;29;20555;-83
2022/05/28 10:56:51;;;;;;;2.03;1.07;;;19.70;81.30;;;;;;4887314;29;21748;-86
2022/05/28 10:59:44;;;;;;;2.20;1.10;;;19.60;77.20;;;;;;4881249;29;20458;-85
2022/05/28 11:02:28;;;;;;;1.90;1.13;;;19.50;78.90;;;;;;4875671;29;20453;-86
2022/05/28 11:05:11;;;;;;;1.50;0.83;;;19.30;78.80;;;;;;4889386;29;20464;-84
2022/05/28 11:08:00;;;;;;;3.43;1.33;;;19.60;80.40;;;;;;4898860;29;20467;-89
2022/05/28 11:10:38;;;;;;;5.87;1.47;;;19.90;78.70;;;;;;4884224;29;20508;-89
2022/05/28 11:13:39;;;;;;;2.80;1.30;;;19.50;75.60;;;;;;4898476;29;20444;-88
2022/05/28 11:16:16;;;;;;;1.97;1.10;;;19.70;79.40;;;;;;4880066;29;20983;-87
2022/05/28 11:19:18;;;;;;;2.43;1.07;;;19.20;81.00;;;;;;4889517;29;20495;-85
2022/05/28 11:22:06;;;;;;;3.10;1.13;;;19.80;81.10;;;;;;4836876;29;20448;-86
2022/05/28 11:24:49;;;;;;;3.73;1.10;;;19.90;80.20;;;;;;4858061;29;20438;-88
2022/05/28 11:27:14;;;;;;;2.83;1.10;;;19.60;77.80;;;;;;4900046;29;20444;-88
2022/05/28 11:30:24;;;;;;;4.10;1.13;;;18.10;77.70;;;;;;4900912;29;20808;-86
2022/05/28 11:33:14;;;;;;;4.70;1.70;;;18.60;82.50;;;;;;4880498;29;20211;-86
2022/05/28 11:36:08;;;;;;;6.20;1.70;;;18.70;80.10;;;;;;4899968;29;20448;-86
2022/05/28 11:38:44;;;;;;;4.60;1.53;;;19.00;80.30;;;;;;4897962;29;20706;-87
2022/05/28 11:41:28;;;;;;;2.07;1.30;;;18.90;75.60;;;;;;4884011;29;20550;-85
2022/05/28 11:44:14;;;;;;;4.50;1.63;;;18.60;78.60;;;;;;4876756;29;20514;-87
2022/05/28 11:47:12;;;;;;;1.60;1.00;;;18.50;80.10;;;;;;4894732;29;20448;-87
2022/05/28 11:53:07;;;;;;;5.47;1.30;;;17.60;75.80;;;;;;4895911;29;20447;-86
2022/05/28 11:55:35;;;;;;;1.90;0.97;;;17.60;78.40;;;;;;4896265;29;20459;-86
2022/05/28 11:58:27;;;;;;;1.83;0.90;;;18.70;79.00;;;;;;4898449;29;20560;-86
2022/05/28 12:00:59;;;;;;;1.77;0.90;;;19.40;73.70;;;;;;4894869;29;20436;-86
2022/05/28 12:03:27;;;;;;;2.87;1.00;;;19.40;76.10;;;;;;4879042;29;20452;-86
2022/05/28 12:06:02;;;;;;;1.13;1.00;;;20.10;71.80;;;;;;4884470;29;20460;-86
2022/05/28 12:08:47;;;;;;;2.30;1.60;;;20.60;72.50;;;;;;4895804;29;20640;-86
2022/05/28 12:11:30;;;;;;;3.13;1.90;;;20.40;72.90;;;;;;4895584;29;20480;-87
2022/05/28 12:14:02;;;;;;;3.03;1.20;;;20.40;70.70;;;;;;4901213;29;20520;-86
2022/05/28 12:16:36;;;;;;;2.00;0.90;;;20.20;66.50;;;;;;4898607;29;20440;-86
2022/05/28 12:19:05;;;;;;;1.90;1.23;;;19.60;66.80;;;;;;4881954;29;20437;-87
2022/05/28 12:21:34;;;;;;;2.20;1.10;;;19.20;67.50;;;;;;4896962;29;20444;-87
2022/05/28 12:24:55;;;;;;;1.73;1.00;;;19.40;75.50;;;;;;4883436;29;20488;-87
2022/05/28 12:27:23;;;;;;;1.93;1.00;;;20.40;73.00;;;;;;4890846;29;20455;-87
2022/05/28 12:30:02;;;;;;;4.63;1.10;;;20.40;67.90;;;;;;4884702;29;20494;-88
2022/05/28 12:32:49;;;;;;;2.87;0.80;;;20.40;71.30;;;;;;4881535;29;20537;-87
2022/05/28 12:35:14;;;;;;;1.53;0.70;;;20.90;66.00;;;;;;4900456;29;20511;-87
2022/05/28 12:38:01;;;;;;;2.37;2.10;;;20.90;64.80;;;;;;4883020;29;20448;-87
2022/05/28 12:41:00;;;;;;;1.87;1.20;;;21.10;65.50;;;;;;4894311;29;20191;-87
2022/05/28 12:43:27;;;;;;;1.80;1.00;;;21.40;68.40;;;;;;4880545;29;20468;-88
2022/05/28 12:45:54;;;;;;;4.00;1.50;;;21.10;59.80;;;;;;4889569;29;20449;-86
2022/05/28 12:48:39;;;;;;;4.07;1.33;;;19.30;63.10;;;;;;4895209;29;20448;-87
2022/05/28 12:51:22;;;;;;;4.50;1.73;;;19.70;67.50;;;;;;4893906;29;20606;-86
2022/05/28 12:53:58;;;;;;;1.97;0.90;;;20.90;67.70;;;;;;4900038;29;20455;-86
2022/05/28 12:56:44;;;;;;;3.83;1.13;;;21.70;64.00;;;;;;4877201;29;20467;-86
2022/05/28 12:59:22;;;;;;;2.90;1.00;;;20.50;60.10;;;;;;4877170;29;20444;-86
2022/05/28 13:01:57;;;;;;;1.23;1.00;;;19.70;62.90;;;;;;4879684;29;20444;-86
2022/05/28 13:04:28;;;;;;;2.10;1.10;;;19.80;63.40;;;;;;4889511;29;20523;-86
2022/05/28 13:06:57;;;;;;;1.33;0.87;;;20.00;66.20;;;;;;4884614;29;21070;-86
2022/05/28 13:09:29;;;;;;;5.53;1.10;;;20.10;64.50;;;;;;4880558;29;20554;-86
2022/05/28 13:12:24;;;;;;;2.33;0.90;;;19.30;61.70;;;;;;4879407;29;21277;-85
2022/05/28 13:15:21;;;;;;;2.50;1.27;;;19.40;67.10;;;;;;4890519;29;20452;-86
2022/05/28 13:17:57;;;;;;;1.30;1.10;;;20.60;67.50;;;;;;4876409;29;20453;-86
2022/05/28 13:20:39;;;;;;;2.03;1.10;;;21.00;63.30;;;;;;4890106;29;20444;-87